Time;durP1;ratioP1;P1;durP2;ratioP2;P2;SDS_P1;SDS_P2;PMS_P1;PMS_P2;Temp;Humidity;BMP_temperature;BMP_pressure;BME280_temperature;BME280_humidity;BME280_pressure;Samples;Min_cycle;Max_cycle;Signal;HPM_P1;HPM_P2
2022/09/22 00:01:08;;;;;;;;;13.67;13.00;;;;;16.52;45.27;101446.16;5016824;28;45427;-69
2022/09/22 00:03:37;;;;;;;;;12.00;11.33;;;;;16.55;45.29;101439.84;5016300;28;45759;-69
2022/09/22 00:06:14;;;;;;;;;8.00;8.00;;;;;16.54;44.87;101438.97;5017002;28;45498;-69
2022/09/22 00:08:43;;;;;;;;;11.33;10.33;;;;;16.52;44.80;101438.19;5016777;28;45470;-69
2022/09/22 00:11:19;;;;;;;;;11.67;11.00;;;;;16.49;45.26;101438.31;5016570;28;45458;-69
2022/09/22 00:13:49;;;;;;;;;8.67;8.33;;;;;16.50;45.64;101436.56;5016850;28;45395;-69
2022/09/22 00:16:16;;;;;;;;;9.00;9.00;;;;;16.42;45.23;101436.91;5017388;28;45415;-69
2022/09/22 00:18:42;;;;;;;;;10.00;8.67;;;;;16.41;46.27;101434.31;5016155;28;45678;-69
2022/09/22 00:21:13;;;;;;;;;11.00;11.00;;;;;16.38;46.10;101437.09;5016387;28;45431;-69
2022/09/22 00:23:40;;;;;;;;;11.33;10.33;;;;;16.38;46.35;101443.28;5016159;28;45474;-69
2022/09/22 00:26:17;;;;;;;;;13.00;10.33;;;;;16.35;46.04;101440.75;5016604;28;45517;-69
2022/09/22 00:28:44;;;;;;;;;10.67;10.67;;;;;16.32;46.13;101432.94;5016275;28;45392;-69
2022/09/22 00:31:16;;;;;;;;;10.00;10.00;;;;;16.34;46.16;101442.56;5015734;28;45830;-69
2022/09/22 00:33:42;;;;;;;;;13.67;11.33;;;;;16.35;46.85;101435.44;5016010;28;45425;-69
2022/09/22 00:36:08;;;;;;;;;10.33;10.33;;;;;16.31;47.06;101431.22;5016462;28;45511;-70
2022/09/22 00:38:36;;;;;;;;;12.33;11.33;;;;;16.32;46.63;101438.25;5016160;28;45546;-69
2022/09/22 00:41:01;;;;;;;;;11.33;11.33;;;;;16.32;46.09;101432.94;5015948;28;45503;-70
2022/09/22 00:43:29;;;;;;;;;12.67;12.67;;;;;16.28;46.35;101431.34;5015427;28;45533;-69
2022/09/22 00:46:24;;;;;;;;;11.00;11.00;;;;;16.28;46.74;101431.34;5015849;28;45415;-69
2022/09/22 00:49:05;;;;;;;;;11.33;11.33;;;;;16.23;46.80;101433.38;5016125;28;45543;-69
2022/09/22 00:51:36;;;;;;;;;10.67;10.67;;;;;16.21;47.64;101436.09;5016010;28;45621;-69
2022/09/22 00:54:05;;;;;;;;;12.67;11.33;;;;;16.05;47.73;101408.53;5016169;28;45445;-69
2022/09/22 00:56:50;;;;;;;;;12.33;12.33;;;;;16.13;47.10;101433.78;5016054;28;45571;-69
2022/09/22 00:59:19;;;;;;;;;13.00;13.00;;;;;16.15;47.67;101425.75;5015450;28;45606;-69
2022/09/22 01:01:44;;;;;;;;;10.67;8.67;;;;;16.04;47.32;101412.97;5015291;28;46375;-69
2022/09/22 01:04:11;;;;;;;;;10.67;10.67;;;;;16.08;47.84;101430.47;5015925;28;45597;-69
2022/09/22 01:06:39;;;;;;;;;13.67;11.33;;;;;16.06;47.70;101426.16;5016154;28;45404;-69
2022/09/22 01:09:05;;;;;;;;;13.00;11.67;;;;;16.02;47.92;101419.28;5014875;28;45382;-69
2022/09/22 01:11:32;;;;;;;;;10.00;9.00;;;;;16.07;47.11;101423.44;5015469;28;46278;-69
2022/09/22 01:14:16;;;;;;;;;11.00;11.00;;;;;16.09;47.42;101423.34;5014369;28;45523;-69
2022/09/22 01:16:53;;;;;;;;;10.67;10.33;;;;;16.07;48.02;101420.78;5016435;28;45542;-69
2022/09/22 01:19:49;;;;;;;;;10.67;10.00;;;;;16.05;47.31;101413.84;5015653;28;45395;-69
2022/09/22 01:22:31;;;;;;;;;10.00;9.67;;;;;16.00;47.74;101408.72;5014933;28;45501;-69
2022/09/22 01:25:24;;;;;;;;;9.67;9.67;;;;;16.03;47.55;101419.19;5015714;28;45653;-69
2022/09/22 01:28:14;;;;;;;;;12.33;11.33;;;;;16.04;47.72;101406.78;5014784;28;45476;-69
2022/09/22 01:30:48;;;;;;;;;12.67;12.33;;;;;16.07;47.78;101412.84;5015460;28;45504;-69
2022/09/22 01:33:41;;;;;;;;;10.33;9.33;;;;;16.05;47.87;101403.22;5014768;28;45565;-69
2022/09/22 01:36:22;;;;;;;;;9.33;9.33;;;;;16.05;47.18;101404.06;5015030;28;45532;-69
2022/09/22 01:39:35;;;;;;;;;10.00;10.00;;;;;16.01;47.71;101401.63;5015351;28;45563;-69
2022/09/22 01:42:01;;;;;;;;;9.33;9.33;;;;;15.98;47.33;101401.75;5011436;28;45540;-69
2022/09/22 01:44:38;;;;;;;;;8.00;8.00;;;;;15.90;47.35;101394.16;5015132;28;45468;-69
2022/09/22 01:47:21;;;;;;;;;9.67;9.33;;;;;15.93;48.35;101399.31;5015178;28;45538;-69
2022/09/22 01:49:51;;;;;;;;;9.33;8.00;;;;;15.96;47.09;101403.63;5014711;28;45443;-69
2022/09/22 01:52:26;;;;;;;;;8.67;8.67;;;;;15.82;47.38;101389.19;5014711;28;45550;-69
2022/09/22 01:55:03;;;;;;;;;6.67;6.67;;;;;15.90;47.83;101404.75;5013680;28;46293;-69
2022/09/22 01:57:55;;;;;;;;;9.33;8.67;;;;;15.87;47.62;101403.09;5015030;28;45422;-69
2022/09/22 02:00:22;;;;;;;;;10.33;8.67;;;;;15.79;47.32;101396.41;5014507;28;45525;-69
2022/09/22 02:02:50;;;;;;;;;8.00;7.67;;;;;15.89;47.33;101408.34;5013691;28;45569;-69
2022/09/22 02:05:25;;;;;;;;;8.00;8.00;;;;;15.85;47.68;101404.97;5014816;28;45507;-69
2022/09/22 02:07:53;;;;;;;;;9.00;7.00;;;;;15.79;47.20;101393.75;5015010;28;45455;-69
2022/09/22 02:10:26;;;;;;;;;8.33;8.33;;;;;15.86;47.50;101403.19;5015165;28;45477;-69
2022/09/22 02:12:51;;;;;;;;;10.67;9.67;;;;;15.87;47.08;101402.25;5015209;28;45356;-69
2022/09/22 02:18:08;;;;;;;;;9.33;9.33;;;;;15.83;47.19;101400.69;5015158;28;45389;-69
2022/09/22 02:20:34;;;;;;;;;8.00;8.00;;;;;15.75;47.57;101382.44;5016918;28;45576;-69
2022/09/22 02:22:59;;;;;;;;;14.33;7.33;;;;;15.79;47.62;101386.66;5018113;28;45863;-69
2022/09/22 02:25:25;;;;;;;;;11.33;8.67;;;;;15.76;47.81;101386.81;5017824;28;45446;-69
2022/09/22 02:27:53;;;;;;;;;10.00;10.00;;;;;15.68;47.70;101379.19;5018041;28;45494;-69
2022/09/22 02:30:19;;;;;;;;;10.00;7.33;;;;;15.75;47.79;101392.19;5017592;28;45539;-69
2022/09/22 02:32:49;;;;;;;;;8.00;7.67;;;;;15.64;48.24;101372.28;5018387;28;45403;-69
2022/09/22 02:35:14;;;;;;;;;9.67;8.67;;;;;15.73;48.07;101391.41;5018078;28;46156;-70
2022/09/22 02:37:55;;;;;;;;;7.00;7.00;;;;;15.72;48.24;101387.03;5017447;28;45521;-69
2022/09/22 02:40:32;;;;;;;;;8.33;8.33;;;;;15.71;47.48;101390.59;5018326;28;45527;-69
2022/09/22 02:43:10;;;;;;;;;9.33;8.33;;;;;15.71;46.88;101383.50;5017725;28;45577;-69
2022/09/22 02:45:49;;;;;;;;;10.67;9.33;;;;;15.61;48.01;101375.06;5017984;28;45517;-69
2022/09/22 02:48:34;;;;;;;;;7.33;7.33;;;;;15.68;47.19;101383.59;5018154;28;45373;-69
2022/09/22 02:51:00;;;;;;;;;8.00;8.00;;;;;15.67;47.28;101387.19;5016499;28;45444;-69
2022/09/22 02:53:25;;;;;;;;;9.33;7.33;;;;;15.65;47.70;101383.75;5017986;28;45586;-69
2022/09/22 02:55:51;;;;;;;;;9.67;8.67;;;;;15.57;48.24;101365.50;5016509;28;45615;-69
2022/09/22 02:58:16;;;;;;;;;9.00;8.33;;;;;15.58;47.92;101376.97;5017349;28;45447;-69
2022/09/22 03:00:42;;;;;;;;;9.33;9.00;;;;;15.54;47.76;101370.94;5018040;28;45914;-69
2022/09/22 03:03:10;;;;;;;;;8.67;8.67;;;;;15.51;48.33;101367.59;5016435;28;45398;-69
2022/09/22 03:05:36;;;;;;;;;9.67;8.33;;;;;15.43;48.88;101363.47;5017662;28;46197;-69
2022/09/22 03:08:01;;;;;;;;;8.67;8.67;;;;;15.48;48.05;101365.94;5017831;28;45567;-69
2022/09/22 03:10:27;;;;;;;;;9.00;8.67;;;;;15.51;47.74;101368.44;5017445;28;45375;-69
2022/09/22 03:12:52;;;;;;;;;11.00;11.00;;;;;15.45;48.44;101353.66;5017858;28;45395;-69
2022/09/22 03:15:18;;;;;;;;;8.00;7.00;;;;;15.50;48.77;101366.72;5017795;28;45943;-69
2022/09/22 03:17:45;;;;;;;;;7.33;7.33;;;;;15.50;47.95;101371.16;5016793;28;45473;-69
2022/09/22 03:20:13;;;;;;;;;10.00;8.33;;;;;15.52;48.57;101364.84;5017705;28;45502;-69
2022/09/22 03:22:39;;;;;;;;;9.00;9.00;;;;;15.52;48.28;101367.50;5017822;28;45574;-69
2022/09/22 03:25:05;;;;;;;;;7.33;7.33;;;;;15.51;48.32;101362.28;5016972;28;45514;-69
2022/09/22 03:27:31;;;;;;;;;7.00;7.00;;;;;15.41;48.48;101354.72;5017531;28;45487;-69
2022/09/22 03:29:56;;;;;;;;;1.00;1.00;;;;;15.46;48.64;101360.69;5017776;28;45372;-69
2022/09/22 03:32:22;;;;;;;;;6.33;6.33;;;;;15.43;48.08;101350.22;5017450;28;45356;-69
2022/09/22 03:34:48;;;;;;;;;8.67;8.67;;;;;15.47;48.56;101356.22;5016000;28;45692;-69
2022/09/22 03:37:15;;;;;;;;;7.00;7.00;;;;;15.34;49.00;101331.19;5017374;28;45448;-69
2022/09/22 03:39:40;;;;;;;;;9.33;9.33;;;;;15.40;49.03;101350.34;5016979;28;45467;-69
2022/09/22 03:42:06;;;;;;;;;8.67;8.67;;;;;15.41;48.59;101354.72;5016702;28;45720;-69
2022/09/22 03:44:31;;;;;;;;;6.00;5.00;;;;;15.41;49.00;101352.06;5017173;28;45486;-70
2022/09/22 03:46:56;;;;;;;;;9.33;8.33;;;;;15.34;48.96;101349.72;5017343;28;45478;-69
2022/09/22 03:49:22;;;;;;;;;9.67;6.67;;;;;15.35;48.24;101352.34;5017151;28;45513;-69
2022/09/22 03:51:47;;;;;;;;;9.33;8.33;;;;;15.33;49.41;101345.38;5017080;28;45602;-68
2022/09/22 03:54:13;;;;;;;;;8.67;8.67;;;;;15.31;48.66;101348.06;5017653;28;56326;-69
2022/09/22 03:56:38;;;;;;;;;6.67;6.67;;;;;15.28;49.57;101352.66;5016388;28;45471;-68
2022/09/22 03:59:03;;;;;;;;;7.67;7.67;;;;;15.25;49.03;101345.69;5016900;28;45495;-69
2022/09/22 04:01:29;;;;;;;;;7.00;7.00;;;;;15.25;49.30;101346.56;5015992;28;45720;-69
2022/09/22 04:03:54;;;;;;;;;9.33;9.33;;;;;15.26;49.23;101347.44;5016310;28;45554;-68
2022/09/22 04:06:20;;;;;;;;;9.00;8.00;;;;;15.30;49.20;101342.88;5016744;28;46099;-69
2022/09/22 04:08:45;;;;;;;;;10.00;9.00;;;;;15.25;49.26;101341.25;5016690;28;45493;-69
2022/09/22 04:11:11;;;;;;;;;8.33;8.33;;;;;15.25;50.02;101341.25;5016761;28;45519;-69
2022/09/22 04:13:36;;;;;;;;;8.67;8.33;;;;;15.25;49.42;101341.25;5016744;28;45384;-68
2022/09/22 04:16:03;;;;;;;;;8.67;8.67;;;;;15.26;48.53;101336.84;5016891;28;45409;-68
2022/09/22 04:18:28;;;;;;;;;13.67;13.33;;;;;15.24;48.76;101334.25;5016088;28;45443;-68
2022/09/22 04:20:56;;;;;;;;;10.67;10.67;;;;;15.21;49.15;101342.34;5015807;28;45511;-69
2022/09/22 04:23:22;;;;;;;;;8.33;8.33;;;;;15.18;49.14;101341.59;5016319;28;45492;-68
2022/09/22 04:25:47;;;;;;;;;10.67;9.00;;;;;15.13;50.06;101331.19;5016040;28;45489;-68
2022/09/22 04:28:13;;;;;;;;;12.33;11.67;;;;;15.17;49.38;101342.50;5016480;28;45415;-69
2022/09/22 04:30:38;;;;;;;;;14.33;11.33;;;;;15.15;50.36;101339.94;5016308;28;45687;-69
2022/09/22 04:33:04;;;;;;;;;10.00;10.00;;;;;15.15;49.74;101337.31;5016177;28;45470;-69
2022/09/22 04:35:29;;;;;;;;;11.67;9.67;;;;;15.11;50.35;101334.84;5016003;28;45464;-68
2022/09/22 04:37:56;;;;;;;;;11.00;11.00;;;;;15.14;50.35;101329.41;5015657;28;45533;-68
2022/09/22 04:40:22;;;;;;;;;9.33;7.67;;;;;15.12;49.10;101326.81;5015987;28;45446;-68
2022/09/22 04:42:48;;;;;;;;;11.00;10.67;;;;;15.15;49.37;101329.34;5015430;28;45380;-68
2022/09/22 04:45:15;;;;;;;;;14.00;11.33;;;;;15.17;49.57;101334.56;5015394;28;46032;-68
2022/09/22 04:47:43;;;;;;;;;9.67;8.33;;;;;15.11;49.61;101333.03;5016027;28;45537;-68
2022/09/22 04:50:09;;;;;;;;;11.67;11.00;;;;;15.03;49.81;101316.63;5015653;28;45593;-68
2022/09/22 04:52:34;;;;;;;;;9.33;9.33;;;;;15.11;49.56;101334.84;5015493;28;45843;-69
2022/09/22 04:54:59;;;;;;;;;12.00;9.33;;;;;15.12;50.27;101325.94;5016115;28;45535;-69
2022/09/22 04:57:24;;;;;;;;;10.00;9.33;;;;;15.09;49.95;101331.38;5014593;28;45537;-69
2022/09/22 04:59:50;;;;;;;;;9.33;9.33;;;;;15.00;49.53;101337.94;5016405;28;45418;-68
2022/09/22 05:02:15;;;;;;;;;7.67;7.67;;;;;15.01;49.97;101323.75;5014909;28;49118;-69
2022/09/22 05:04:40;;;;;;;;;16.67;16.67;;;;;15.01;50.35;101332.56;5003925;28;45508;-69
2022/09/22 05:07:06;;;;;;;;;13.33;12.00;;;;;15.07;49.90;101335.88;5012201;28;45544;-69
2022/09/22 05:09:32;;;;;;;;;12.67;11.33;;;;;15.07;50.40;101335.88;5002567;28;45417;-69
2022/09/22 05:12:00;;;;;;;;;13.00;12.33;;;;;15.08;50.75;101348.22;5014332;28;45431;-69
2022/09/22 05:14:25;;;;;;;;;12.00;11.00;;;;;15.09;50.50;101334.88;5015756;28;45487;-69
2022/09/22 05:16:51;;;;;;;;;15.67;15.00;;;;;15.07;51.15;101336.75;5016286;28;45472;-69
2022/09/22 05:19:16;;;;;;;;;20.00;15.33;;;;;15.07;51.14;101344.72;5015763;28;45404;-69
2022/09/22 05:21:42;;;;;;;;;10.00;10.00;;;;;15.02;50.68;101341.41;5009040;28;45487;-69
2022/09/22 05:24:08;;;;;;;;;12.67;11.33;;;;;14.92;51.66;101334.75;5000035;28;45558;-69
2022/09/22 05:26:33;;;;;;;;;15.33;13.67;;;;;14.95;50.91;101346.06;5015707;28;45827;-69
2022/09/22 05:28:58;;;;;;;;;14.33;14.00;;;;;14.96;51.43;101349.56;5015786;28;45538;-69
2022/09/22 05:31:24;;;;;;;;;15.67;15.67;;;;;14.94;51.04;101349.66;5015409;28;45458;-69
2022/09/22 05:33:49;;;;;;;;;16.33;15.67;;;;;14.86;51.58;101341.16;5016466;28;45529;-69
2022/09/22 05:36:15;;;;;;;;;14.67;14.67;;;;;14.96;51.92;101358.41;5011210;28;45539;-69
2022/09/22 05:38:41;;;;;;;;;14.67;14.67;;;;;14.97;51.00;101359.25;5006725;28;45524;-69
2022/09/22 05:41:06;;;;;;;;;17.00;14.00;;;;;14.92;51.79;101361.25;5015183;28;45472;-69
2022/09/22 05:43:32;;;;;;;;;14.33;14.33;;;;;14.78;51.66;101345.91;5014309;28;45610;-69
2022/09/22 05:45:57;;;;;;;;;16.67;15.00;;;;;14.85;52.60;101373.84;5015492;28;45401;-69
2022/09/22 05:48:22;;;;;;;;;18.33;16.00;;;;;14.88;52.46;101368.44;5015148;28;47019;-69
2022/09/22 05:50:48;;;;;;;;;15.00;15.00;;;;;14.88;52.79;101379.03;5015195;28;46061;-68
2022/09/22 05:53:14;;;;;;;;;15.33;15.33;;;;;14.83;52.57;101372.19;5015360;28;45388;-69
2022/09/22 05:55:40;;;;;;;;;16.33;13.00;;;;;14.79;52.59;101372.31;5007536;28;45505;-69
2022/09/22 05:58:08;;;;;;;;;16.00;16.00;;;;;14.80;52.16;101374.06;5006184;28;45450;-69
2022/09/22 06:00:33;;;;;;;;;16.67;16.00;;;;;14.73;52.59;101367.28;4996971;28;46063;-68
2022/09/22 06:02:58;;;;;;;;;18.67;17.00;;;;;14.84;52.43;101379.22;5014912;28;45502;-68
2022/09/22 06:05:24;;;;;;;;;18.00;18.00;;;;;14.92;52.99;101387.72;5015282;28;45568;-69
2022/09/22 06:07:58;;;;;;;;;16.00;16.00;;;;;14.94;52.15;101388.53;5005316;28;45441;-68
2022/09/22 06:10:24;;;;;;;;;17.00;17.00;;;;;14.90;52.49;101374.53;4996832;28;45481;-69
2022/09/22 06:12:49;;;;;;;;;22.67;18.67;;;;;14.85;53.05;101381.78;5014187;28;45527;-69
2022/09/22 06:15:14;;;;;;;;;18.67;16.33;;;;;14.83;52.10;101367.78;5014325;28;45456;-67
2022/09/22 06:17:40;;;;;;;;;19.33;19.33;;;;;14.97;52.08;101380.47;5014980;28;45493;-68
2022/09/22 06:20:07;;;;;;;;;17.67;17.67;;;;;14.93;51.75;101374.41;5013178;28;65738;-67
2022/09/22 06:22:35;;;;;;;;;19.33;17.00;;;;;15.01;51.73;101377.59;5014003;28;45447;-68
2022/09/22 06:25:01;;;;;;;;;19.67;19.67;;;;;14.98;52.85;101377.72;5013878;28;45459;-68
2022/09/22 06:27:26;;;;;;;;;17.67;17.67;;;;;14.97;51.97;101367.22;5014093;28;45541;-68
2022/09/22 06:29:51;;;;;;;;;22.67;19.67;;;;;15.01;52.05;101376.75;5013018;28;46268;-68
2022/09/22 06:32:18;;;;;;;;;17.00;15.33;;;;;15.04;52.47;101376.59;5014241;28;45519;-68
2022/09/22 06:34:44;;;;;;;;;15.67;15.67;;;;;15.07;51.88;101381.81;5014469;28;45541;-67
2022/09/22 06:37:10;;;;;;;;;17.00;14.67;;;;;15.06;52.72;101372.13;5014033;28;45479;-67
2022/09/22 06:39:36;;;;;;;;;12.67;12.00;;;;;15.06;51.48;101374.75;5014026;28;45609;-68
2022/09/22 06:42:02;;;;;;;;;14.00;13.00;;;;;15.05;50.56;101375.69;5012746;28;45541;-67
2022/09/22 06:44:29;;;;;;;;;13.67;12.33;;;;;14.93;51.58;101353.22;5014046;28;45453;-68
2022/09/22 06:46:54;;;;;;;;;15.00;13.67;;;;;15.02;50.50;101376.69;5014329;28;45561;-68
2022/09/22 06:49:19;;;;;;;;;17.67;15.33;;;;;15.07;51.36;101372.97;5012521;28;47154;-67
2022/09/22 06:51:48;;;;;;;;;17.00;17.00;;;;;14.98;50.39;101355.69;5013626;28;52960;-67
2022/09/22 06:54:14;;;;;;;;;17.33;16.67;;;;;15.05;50.36;101354.50;5013944;28;45412;-67
2022/09/22 06:56:41;;;;;;;;;15.67;15.00;;;;;15.11;50.39;101372.78;5013961;28;45584;-67
2022/09/22 06:59:11;;;;;;;;;11.67;11.67;;;;;15.13;50.82;101370.94;5012309;28;46389;-68
2022/09/22 07:01:40;;;;;;;;;16.67;16.67;;;;;15.14;51.10;101371.78;5013758;28;45586;-68
2022/09/22 07:04:06;;;;;;;;;16.00;14.67;;;;;15.19;50.99;101375.13;5013761;28;45534;-67
2022/09/22 07:06:32;;;;;;;;;14.67;14.67;;;;;15.24;50.69;101381.94;5014126;28;45451;-68
2022/09/22 07:08:58;;;;;;;;;13.50;13.00;;;;;15.30;50.73;101378.16;5015823;28;45840;-67
2022/09/22 07:11:23;;;;;;;;;14.33;11.33;;;;;15.28;49.80;101372.06;5016859;28;45520;-68
2022/09/22 07:13:52;;;;;;;;;18.33;16.00;;;;;15.30;50.09;101375.53;5017219;28;45439;-68
2022/09/22 07:16:19;;;;;;;;;18.33;16.00;;;;;15.29;49.79;101372.94;5017774;28;45423;-67
2022/09/22 07:18:46;;;;;;;;;13.00;13.00;;;;;15.31;49.87;101379.88;5016898;28;45574;-68
2022/09/22 07:21:22;;;;;;;;;14.00;13.33;;;;;15.29;49.28;101380.91;5016820;28;45621;-67
2022/09/22 07:23:49;;;;;;;;;18.00;14.00;;;;;15.33;49.82;101371.88;5017001;28;45576;-68
2022/09/22 07:26:17;;;;;;;;;14.33;12.33;;;;;15.39;49.79;101377.78;5016710;28;45523;-68
2022/09/22 07:28:45;;;;;;;;;18.00;17.00;;;;;15.34;49.87;101365.63;5016587;28;45523;-68
2022/09/22 07:31:12;;;;;;;;;12.00;11.33;;;;;15.45;49.27;101376.66;5016643;28;45467;-67
2022/09/22 07:33:40;;;;;;;;;12.67;11.67;;;;;15.46;50.06;101379.22;5016721;28;45432;-67
2022/09/22 07:36:08;;;;;;;;;20.67;17.67;;;;;15.48;49.19;101368.56;5015471;28;45467;-68
2022/09/22 07:38:35;;;;;;;;;14.67;14.67;;;;;15.50;49.76;101371.16;5016509;28;45996;-68
2022/09/22 07:41:07;;;;;;;;;18.00;15.00;;;;;15.54;49.88;101384.22;5015178;28;45889;-67
2022/09/22 07:43:33;;;;;;;;;16.00;16.00;;;;;15.59;49.03;101376.06;5016521;28;45548;-68
2022/09/22 07:45:59;;;;;;;;;18.67;15.00;;;;;15.64;49.35;101384.69;5016718;28;45487;-67
2022/09/22 07:48:35;;;;;;;;;17.67;17.67;;;;;15.68;48.89;101379.19;5016378;28;45471;-67
2022/09/22 07:51:00;;;;;;;;;17.67;17.67;;;;;15.73;50.14;101384.28;5015172;28;45514;-67
2022/09/22 07:53:26;;;;;;;;;16.33;15.67;;;;;15.74;49.00;101385.16;5016351;28;45489;-67
2022/09/22 07:55:51;;;;;;;;;17.33;15.67;;;;;15.82;48.06;101380.38;5016348;28;45601;-68
2022/09/22 07:58:16;;;;;;;;;18.00;17.00;;;;;15.84;48.03;101387.31;5016355;28;46080;-67
2022/09/22 08:00:42;;;;;;;;;15.33;13.00;;;;;15.78;48.25;101373.50;5016228;28;46779;-68
2022/09/22 08:03:07;;;;;;;;;21.67;19.67;;;;;15.81;46.72;101373.34;5016062;28;45463;-67
2022/09/22 08:05:32;;;;;;;;;15.33;12.67;;;;;15.88;47.96;101386.28;5016373;28;45650;-68
2022/09/22 08:07:59;;;;;;;;;17.67;14.33;;;;;15.92;48.23;101367.56;5016228;28;46264;-68
2022/09/22 08:10:25;;;;;;;;;15.67;15.67;;;;;15.93;47.46;101369.28;5016083;28;45492;-67
2022/09/22 08:12:56;;;;;;;;;15.67;15.00;;;;;16.00;47.74;101378.69;5016075;28;45423;-67
2022/09/22 08:15:22;;;;;;;;;15.00;13.33;;;;;16.05;48.00;101376.69;5016292;28;45582;-67
2022/09/22 08:17:48;;;;;;;;;19.67;16.67;;;;;16.06;47.63;101370.44;5015116;28;45859;-68
2022/09/22 08:20:13;;;;;;;;;15.00;13.33;;;;;16.13;46.79;101377.19;5015975;28;45483;-68
2022/09/22 08:22:40;;;;;;;;;33.33;31.00;;;;;16.17;46.83;101376.09;5015802;28;45523;-68
2022/09/22 08:25:06;;;;;;;;;19.67;15.33;;;;;16.18;47.79;101377.84;5016123;28;45602;-68
2022/09/22 08:27:35;;;;;;;;;18.67;16.33;;;;;16.19;47.19;101373.38;5015669;28;45538;-67
2022/09/22 08:30:00;;;;;;;;;16.33;15.67;;;;;16.24;47.00;101382.00;5015764;28;45469;-68
2022/09/22 08:32:29;;;;;;;;;18.67;18.67;;;;;16.26;46.66;101375.69;5015940;28;46139;-68
2022/09/22 08:34:56;;;;;;;;;12.00;12.00;;;;;16.28;46.11;101378.25;5016038;28;45459;-68
2022/09/22 08:37:22;;;;;;;;;20.33;20.33;;;;;16.29;46.08;101378.19;5015453;28;45471;-67
2022/09/22 08:39:48;;;;;;;;;15.00;15.00;;;;;16.28;46.57;101384.44;5015671;28;45524;-68
2022/09/22 08:42:21;;;;;;;;;13.67;13.67;;;;;16.34;45.79;101384.16;5015363;28;45408;-67
2022/09/22 08:44:56;;;;;;;;;15.33;14.67;;;;;16.39;45.53;101378.63;5015686;28;45565;-68
2022/09/22 08:53:32;;;;;;;;;12.33;12.00;;;;;16.35;46.46;101364.63;5015387;28;45450;-68
2022/09/22 08:56:09;;;;;;;;;15.33;12.67;;;;;16.44;46.20;101379.28;5013863;28;45640;-68
2022/09/22 08:59:28;;;;;;;;;16.00;15.33;;;;;16.52;45.83;101379.78;5015371;28;46246;-67
2022/09/22 09:02:12;;;;;;;;;16.00;16.00;;;;;16.59;45.28;101377.69;4990485;28;45460;-67
2022/09/22 09:04:59;;;;;;;;;17.67;17.33;;;;;16.62;45.85;101379.31;5015307;28;45474;-67
2022/09/22 09:07:42;;;;;;;;;17.33;15.33;;;;;16.67;45.68;101380.81;5014966;28;45369;-67
2022/09/22 09:10:21;;;;;;;;;13.00;13.00;;;;;16.71;45.51;101378.88;5015003;28;46178;-67
2022/09/22 09:12:55;;;;;;;;;13.67;10.33;;;;;16.73;45.24;101383.16;5013618;28;45433;-67
2022/09/22 09:15:40;;;;;;;;;9.67;9.67;;;;;16.77;45.39;101376.81;5014940;28;45447;-67
2022/09/22 09:18:14;;;;;;;;;10.67;10.33;;;;;16.82;44.40;101379.25;5015432;28;45438;-67
2022/09/22 09:20:45;;;;;;;;;9.00;9.00;;;;;16.85;44.10;101379.13;5015010;28;46205;-67
2022/09/22 09:23:18;;;;;;;;;9.00;8.00;;;;;16.89;43.93;101377.16;5015026;28;45534;-67
2022/09/22 09:25:49;;;;;;;;;12.00;10.67;;;;;16.92;43.97;101382.31;5015038;28;45539;-67
2022/09/22 09:28:30;;;;;;;;;10.00;10.00;;;;;16.72;44.07;101338.97;5015102;28;45528;-69
2022/09/22 09:31:07;;;;;;;;;8.00;8.00;;;;;17.01;44.00;101379.22;5014854;28;46905;-67
2022/09/22 09:33:43;;;;;;;;;9.00;9.00;;;;;17.04;43.66;101375.56;5014964;28;45428;-67
2022/09/22 09:36:16;;;;;;;;;5.67;5.33;;;;;17.08;42.49;101366.47;5015037;28;45490;-67
2022/09/22 09:38:50;;;;;;;;;7.67;7.67;;;;;17.07;42.77;101367.41;5013217;28;45621;-66
2022/09/22 09:41:26;;;;;;;;;5.67;5.00;;;;;17.16;42.54;101373.09;5014582;28;46175;-67
2022/09/22 09:43:53;;;;;;;;;4.67;4.67;;;;;17.13;42.55;101364.44;5014733;28;45455;-67
2022/09/22 09:46:33;;;;;;;;;3.67;3.33;;;;;17.20;41.79;101377.34;5014707;28;45483;-67
2022/09/22 09:49:09;;;;;;;;;6.33;5.67;;;;;17.23;42.62;101379.00;5014936;28;45470;-67
2022/09/22 09:51:41;;;;;;;;;4.00;4.00;;;;;17.27;41.87;101371.72;5014720;28;45493;-67
2022/09/22 09:54:08;;;;;;;;;8.00;7.00;;;;;17.28;42.37;101366.31;5014574;28;45422;-67
2022/09/22 09:56:36;;;;;;;;;5.33;5.33;;;;;17.33;41.17;101363.41;5014481;28;45473;-67
2022/09/22 10:01:52;;;;;;;;;5.33;5.33;;;;;17.42;40.77;101352.31;5013136;28;45530;-67
2022/09/22 10:04:25;;;;;;;;;5.00;5.00;;;;;17.43;41.07;101354.03;5012782;28;45495;-67
2022/09/22 10:06:50;;;;;;;;;7.33;6.33;;;;;17.48;40.43;101346.66;5014576;28;45455;-67
2022/09/22 10:09:27;;;;;;;;;6.00;5.00;;;;;17.55;40.49;101347.22;5014384;28;45592;-67
2022/09/22 10:12:00;;;;;;;;;6.00;6.00;;;;;17.58;41.02;101347.06;5014281;28;46146;-67
2022/09/22 10:14:30;;;;;;;;;11.33;9.33;;;;;17.62;40.98;101340.63;5013935;28;45505;-68
2022/09/22 10:16:55;;;;;;;;;6.67;6.33;;;;;17.60;40.59;101334.56;5014797;28;45492;-67
2022/09/22 10:19:26;;;;;;;;;5.67;5.33;;;;;17.65;40.82;101329.81;5014022;28;45457;-67
2022/09/22 10:21:51;;;;;;;;;7.33;6.00;;;;;17.69;40.19;101328.72;5014208;28;45499;-68
2022/09/22 10:24:32;;;;;;;;;7.67;7.67;;;;;17.71;40.69;101332.16;5012634;28;45479;-68
2022/09/22 10:26:58;;;;;;;;;8.00;7.00;;;;;17.74;41.09;101334.66;5014171;28;45393;-68
2022/09/22 10:29:24;;;;;;;;;16.67;15.00;;;;;17.78;40.49;101332.69;5013961;28;45484;-68
2022/09/22 10:32:04;;;;;;;;;8.00;7.00;;;;;17.81;40.29;101329.88;5013971;28;45854;-67
2022/09/22 10:34:35;;;;;;;;;5.00;5.00;;;;;17.84;39.61;101324.44;5013960;28;45513;-68
2022/09/22 10:37:07;;;;;;;;;4.33;2.67;;;;;17.87;39.25;101333.09;5013851;28;45417;-68
2022/09/22 10:39:42;;;;;;;;;5.00;4.00;;;;;17.84;39.67;101316.44;5014026;28;45485;-67
2022/09/22 10:42:33;;;;;;;;;4.00;4.00;;;;;17.91;39.64;101331.13;5016995;28;45384;-67
2022/09/22 10:45:06;;;;;;;;;3.67;2.00;;;;;17.87;39.17;101306.47;5017179;28;45592;-68
2022/09/22 10:48:03;;;;;;;;;4.67;4.67;;;;;17.96;38.99;101318.41;5016366;28;45599;-68
2022/09/22 10:50:55;;;;;;;;;4.00;4.00;;;;;17.86;38.88;101287.94;5014011;28;45665;-68
2022/09/22 10:53:49;;;;;;;;;4.33;4.00;;;;;18.02;39.00;101303.91;5017232;28;45592;-67
2022/09/22 10:56:34;;;;;;;;;2.67;2.67;;;;;18.06;39.29;101308.13;4998215;28;45402;-68
2022/09/22 10:59:00;;;;;;;;;7.33;7.33;;;;;18.12;39.15;101306.94;4996044;28;45455;-68
2022/09/22 11:01:37;;;;;;;;;7.33;7.00;;;;;18.14;37.70;101297.06;5009352;28;45598;-68
2022/09/22 11:04:32;;;;;;;;;21.67;21.00;;;;;18.18;38.11;101302.13;5016385;28;46267;-68
2022/09/22 11:13:21;;;;;;;;;12.67;11.67;;;;;18.28;37.80;101291.81;5017581;28;45481;-67
2022/09/22 11:16:06;;;;;;;;;7.67;7.67;;;;;18.32;37.72;101283.56;5017130;28;46422;-67
2022/09/22 11:19:04;;;;;;;;;9.00;9.00;;;;;18.35;37.96;101294.97;5016986;28;45605;-67
2022/09/22 11:22:11;;;;;;;;;2.00;2.00;;;;;18.34;37.24;101286.13;4997949;28;45577;-67
2022/09/22 11:24:38;;;;;;;;;5.00;3.00;;;;;18.37;37.56;101277.97;4968676;28;45551;-66
2022/09/22 11:27:14;;;;;;;;;5.33;4.00;;;;;18.36;38.45;101273.59;5004246;28;45455;-66
2022/09/22 11:29:40;;;;;;;;;2.00;2.00;;;;;18.39;37.95;101277.88;5015158;28;45452;-67
2022/09/22 11:32:39;;;;;;;;;3.00;3.00;;;;;18.42;38.68;101275.03;5016819;28;45430;-67
2022/09/22 11:35:23;;;;;;;;;15.67;15.33;;;;;18.46;37.91;101280.13;5016592;28;45535;-67
2022/09/22 11:38:01;;;;;;;;;3.67;3.67;;;;;18.47;37.41;101283.63;5014877;28;46430;-67
2022/09/22 11:40:38;;;;;;;;;2.00;2.00;;;;;18.49;37.52;101279.09;5014362;28;45528;-68
2022/09/22 11:43:23;;;;;;;;;4.00;4.00;;;;;18.53;37.21;101277.94;5018060;28;45540;-68
2022/09/22 11:46:13;;;;;;;;;6.00;6.00;;;;;18.59;37.59;101266.97;5012623;28;45677;-68
2022/09/22 11:49:03;;;;;;;;;2.33;2.33;;;;;18.70;37.50;101279.66;5014829;28;47224;-67
2022/09/22 11:51:42;;;;;;;;;2.00;2.00;;;;;18.78;37.10;101264.09;5015829;28;45513;-67